createdAt,value
2022-10-25T00:00:09.040Z,960.1300
2022-10-25T00:00:20.104Z,960.1100
2022-10-25T00:00:31.313Z,960.1100
2022-10-25T00:00:42.512Z,960.1100
2022-10-25T00:00:53.715Z,960.1500
2022-10-25T00:01:04.945Z,960.1100
2022-10-25T00:01:16.214Z,960.1100
2022-10-25T00:01:27.651Z,960.1100
2022-10-25T00:01:38.983Z,960.1100
2022-10-25T00:01:50.225Z,960.0700
2022-10-25T00:02:01.500Z,960.0700
2022-10-25T00:02:12.921Z,960.0500
2022-10-25T00:02:24.483Z,960.0500
2022-10-25T00:02:35.939Z,960.0300
2022-10-25T00:02:47.065Z,960.0300
2022-10-25T00:02:58.183Z,960.0300
2022-10-25T00:03:09.384Z,960.0300
2022-10-25T00:03:20.583Z,960.0100
2022-10-25T00:03:31.631Z,960.0100
2022-10-25T00:03:42.674Z,959.9900
2022-10-25T00:03:53.713Z,959.9900
2022-10-25T00:04:04.758Z,959.9900
2022-10-25T00:04:15.988Z,959.9900
2022-10-25T00:04:27.044Z,959.9900
2022-10-25T00:04:38.109Z,959.9900
2022-10-25T00:04:49.172Z,959.9700
2022-10-25T00:05:00.231Z,959.9600
2022-10-25T00:05:11.303Z,959.9400
2022-10-25T00:05:22.504Z,959.9400
2022-10-25T00:05:33.708Z,959.9200
2022-10-25T00:05:44.900Z,959.9200
2022-10-25T00:05:56.104Z,959.9000
2022-10-25T00:06:07.181Z,959.9000
2022-10-25T00:06:18.259Z,959.8800
2022-10-25T00:06:29.389Z,959.8800
2022-10-25T00:06:40.584Z,959.8600
2022-10-25T00:06:51.783Z,959.8600
2022-10-25T00:07:02.983Z,959.8400
2022-10-25T00:07:14.220Z,959.8400
2022-10-25T00:07:25.384Z,959.8600
2022-10-25T00:07:36.583Z,959.8400
2022-10-25T00:07:48.149Z,959.8400
2022-10-25T00:07:59.361Z,959.8400
2022-10-25T00:08:10.502Z,959.8600
2022-10-25T00:08:21.703Z,959.8400
2022-10-25T00:08:32.904Z,959.8400
2022-10-25T00:08:44.105Z,959.8200
2022-10-25T00:08:55.305Z,959.8400
2022-10-25T00:09:06.356Z,959.8400
2022-10-25T00:09:17.423Z,959.8200
2022-10-25T00:09:28.583Z,959.8200
2022-10-25T00:09:39.786Z,959.8400
2022-10-25T00:09:51.014Z,959.8400
2022-10-25T00:10:02.191Z,959.8600
2022-10-25T00:10:13.232Z,959.8800
2022-10-25T00:10:25.751Z,959.8800
2022-10-25T00:10:37.064Z,959.8600
2022-10-25T00:10:48.263Z,959.8600
2022-10-25T00:10:59.303Z,959.8600
2022-10-25T00:11:10.343Z,959.8800
2022-10-25T00:11:21.543Z,959.8600
2022-10-25T00:11:32.752Z,959.8600
2022-10-25T00:11:43.944Z,959.8600
2022-10-25T00:11:55.144Z,959.8600
2022-10-25T00:12:06.343Z,959.8600
2022-10-25T00:12:17.545Z,959.8600
2022-10-25T00:12:28.665Z,959.8400
2022-10-25T00:12:50.824Z,959.8200
2022-10-25T00:13:02.024Z,959.8000
2022-10-25T00:13:13.231Z,959.8200
2022-10-25T00:13:24.423Z,959.8000
2022-10-25T00:13:35.634Z,959.8000
2022-10-25T00:13:46.822Z,959.8200
2022-10-25T00:13:58.024Z,959.8000
2022-10-25T00:14:09.223Z,959.8200
2022-10-25T00:14:20.426Z,959.8200
2022-10-25T00:14:31.464Z,959.8400
2022-10-25T00:14:42.515Z,959.8400
2022-10-25T00:14:53.603Z,959.8400
2022-10-25T00:15:04.709Z,959.8400
2022-10-25T00:15:15.733Z,959.8400
2022-10-25T00:15:26.843Z,959.8400
2022-10-25T00:15:37.912Z,959.8400
2022-10-25T00:15:49.074Z,959.8600
2022-10-25T00:16:00.267Z,959.8600
2022-10-25T00:16:11.465Z,959.8600
2022-10-25T00:16:22.502Z,959.8200
2022-10-25T00:16:33.562Z,959.8200
2022-10-25T00:16:44.760Z,959.8200
2022-10-25T00:16:55.794Z,959.8400
2022-10-25T00:17:06.914Z,959.8400
2022-10-25T00:17:18.023Z,959.8200
2022-10-25T00:17:29.063Z,959.8000
2022-10-25T00:17:40.185Z,959.8000
2022-10-25T00:17:51.224Z,959.8000
2022-10-25T00:18:02.284Z,959.8200
2022-10-25T00:18:13.397Z,959.8200
2022-10-25T00:18:24.583Z,959.8200
2022-10-25T00:18:35.625Z,959.8000
2022-10-25T00:18:46.674Z,959.8000
2022-10-25T00:18:57.871Z,959.8200
2022-10-25T00:19:08.983Z,959.8000
2022-10-25T00:19:20.054Z,959.8200
2022-10-25T00:19:31.152Z,959.8000
2022-10-25T00:19:42.193Z,959.8000
2022-10-25T00:19:53.313Z,959.8000
2022-10-25T00:20:04.454Z,959.8200
2022-10-25T00:20:15.512Z,959.8200
2022-10-25T00:20:26.579Z,959.8200
2022-10-25T00:20:37.722Z,959.8200
2022-10-25T00:20:48.797Z,959.8200
2022-10-25T00:20:59.928Z,959.8000
2022-10-25T00:21:11.034Z,959.8000
2022-10-25T00:21:22.185Z,959.8000
2022-10-25T00:21:33.390Z,959.8000
2022-10-25T00:21:44.584Z,959.8000
2022-10-25T00:21:55.623Z,959.8000
2022-10-25T00:22:06.663Z,959.8200
2022-10-25T00:22:17.738Z,959.8000
2022-10-25T00:22:28.763Z,959.8000
2022-10-25T00:22:39.943Z,959.8000
2022-10-25T00:22:51.147Z,959.8000
2022-10-25T00:23:02.196Z,959.8200
2022-10-25T00:23:13.242Z,959.8400
2022-10-25T00:23:24.423Z,959.8400
2022-10-25T00:23:35.478Z,959.8200
2022-10-25T00:23:46.608Z,959.8200
2022-10-25T00:23:57.703Z,959.8400
2022-10-25T00:24:08.744Z,959.8400
2022-10-25T00:24:19.793Z,959.8400
2022-10-25T00:24:30.843Z,959.8400
2022-10-25T00:24:41.913Z,959.8400
2022-10-25T00:24:53.062Z,959.8400
2022-10-25T00:25:04.264Z,959.8400
2022-10-25T00:25:15.323Z,959.8600
2022-10-25T00:25:26.412Z,959.8600
2022-10-25T00:25:37.552Z,959.8600
2022-10-25T00:25:48.752Z,959.8600
2022-10-25T00:25:59.942Z,959.8600
2022-10-25T00:26:11.144Z,959.8600
2022-10-25T00:26:22.343Z,959.8600
2022-10-25T00:26:33.545Z,959.8800
2022-10-25T00:26:44.744Z,959.8800
2022-10-25T00:26:55.943Z,959.9000
2022-10-25T00:27:07.144Z,959.9000
2022-10-25T00:27:18.183Z,959.8800
2022-10-25T00:27:29.227Z,959.8800
2022-10-25T00:27:40.428Z,959.8800
2022-10-25T00:27:51.522Z,959.8800
2022-10-25T00:28:02.582Z,959.9000
2022-10-25T00:28:13.704Z,959.8800
2022-10-25T00:28:24.912Z,959.9000
2022-10-25T00:28:36.038Z,959.9000
2022-10-25T00:28:47.101Z,959.9000
2022-10-25T00:28:58.183Z,959.8800
2022-10-25T00:29:09.471Z,959.8800
2022-10-25T00:29:20.644Z,959.8600
2022-10-25T00:29:31.706Z,959.9000
2022-10-25T00:29:42.774Z,959.9000
2022-10-25T00:29:53.871Z,959.9000
2022-10-25T00:30:04.914Z,959.8600
2022-10-25T00:30:15.973Z,959.8400
2022-10-25T00:30:27.146Z,959.8600
2022-10-25T00:30:38.184Z,959.8400
2022-10-25T00:30:49.224Z,959.8400
2022-10-25T00:31:00.425Z,959.8400
2022-10-25T00:31:11.631Z,959.8400
2022-10-25T00:31:22.837Z,959.8400
2022-10-25T00:31:34.034Z,959.8200
2022-10-25T00:31:45.084Z,959.8400
2022-10-25T00:31:56.163Z,959.8400
2022-10-25T00:32:07.305Z,959.8200
2022-10-25T00:32:18.512Z,959.8200
2022-10-25T00:32:29.703Z,959.8200
2022-10-25T00:32:40.901Z,959.8200
2022-10-25T00:32:52.103Z,959.8200
2022-10-25T00:33:03.303Z,959.8400
2022-10-25T00:33:14.503Z,959.8400
2022-10-25T00:33:25.704Z,959.8400
2022-10-25T00:33:36.903Z,959.8200
2022-10-25T00:33:47.944Z,959.8400
2022-10-25T00:33:59.063Z,959.8400
2022-10-25T00:34:10.183Z,959.8400
2022-10-25T00:34:21.383Z,959.8600
2022-10-25T00:34:32.589Z,959.8600
2022-10-25T00:34:43.784Z,959.8600
2022-10-25T00:34:54.833Z,959.8600
2022-10-25T00:35:05.909Z,959.8800
2022-10-25T00:35:17.098Z,959.9000
2022-10-25T00:35:28.263Z,959.8600
2022-10-25T00:35:39.464Z,959.8800
2022-10-25T00:35:50.671Z,959.8800
2022-10-25T00:36:01.753Z,959.8800
2022-10-25T00:36:12.812Z,959.8600
2022-10-25T00:36:23.943Z,959.8800
2022-10-25T00:36:35.144Z,959.8800
2022-10-25T00:36:46.346Z,959.8800
2022-10-25T00:36:57.543Z,959.9000
2022-10-25T00:37:08.743Z,959.9000
2022-10-25T00:37:19.971Z,959.9000
2022-10-25T00:37:31.209Z,959.9000
2022-10-25T00:37:42.343Z,959.9200
2022-10-25T00:37:53.543Z,959.9200
2022-10-25T00:38:04.597Z,959.9200
2022-10-25T00:38:15.634Z,959.9000
2022-10-25T00:38:26.831Z,959.9000
2022-10-25T00:38:38.031Z,959.9200
2022-10-25T00:38:49.237Z,959.9200
2022-10-25T00:39:00.423Z,959.9200
2022-10-25T00:39:11.624Z,959.9400
2022-10-25T00:39:22.831Z,959.9400
2022-10-25T00:39:34.024Z,959.9200
2022-10-25T00:39:45.225Z,959.9200
2022-10-25T00:39:56.423Z,959.9200
2022-10-25T00:40:07.474Z,959.9200
2022-10-25T00:40:18.543Z,959.9400
2022-10-25T00:40:29.702Z,959.9400
2022-10-25T00:40:40.903Z,959.9400
2022-10-25T00:40:52.104Z,959.9600
2022-10-25T00:41:03.308Z,959.9600
2022-10-25T00:41:14.352Z,959.9400
2022-10-25T00:41:25.423Z,959.9400
2022-10-25T00:41:36.584Z,959.9400
2022-10-25T00:41:47.784Z,959.9400
2022-10-25T00:41:59.001Z,959.9400
2022-10-25T00:42:10.183Z,959.9600
2022-10-25T00:42:21.382Z,959.9700
2022-10-25T00:42:32.583Z,959.9700
2022-10-25T00:42:44.075Z,959.9700
2022-10-25T00:42:55.373Z,959.9400
2022-10-25T00:43:06.504Z,959.9400
2022-10-25T00:43:17.713Z,959.9400
2022-10-25T00:43:28.905Z,959.9400
2022-10-25T00:43:40.110Z,959.9600
2022-10-25T00:43:51.155Z,959.9600
2022-10-25T00:44:02.194Z,959.9700
2022-10-25T00:44:13.272Z,959.9600
2022-10-25T00:44:24.334Z,959.9600
2022-10-25T00:44:35.464Z,959.9600
2022-10-25T00:44:46.665Z,959.9600
2022-10-25T00:44:57.725Z,959.9700
2022-10-25T00:45:08.767Z,959.9700
2022-10-25T00:45:19.981Z,959.9700
2022-10-25T00:45:31.034Z,959.9900
2022-10-25T00:45:42.093Z,959.9900
2022-10-25T00:45:53.250Z,960.0100
2022-10-25T00:46:04.425Z,960.0100
2022-10-25T00:46:15.624Z,960.0300
2022-10-25T00:46:26.837Z,960.0100
2022-10-25T00:46:37.873Z,960.0300
2022-10-25T00:46:48.950Z,960.0300
2022-10-25T00:47:00.103Z,960.0100
2022-10-25T00:47:11.311Z,960.0300
2022-10-25T00:47:22.503Z,960.0500
2022-10-25T00:47:33.704Z,960.0500
2022-10-25T00:47:44.950Z,960.0500
2022-10-25T00:47:56.480Z,960.0500
2022-10-25T00:48:07.624Z,960.0700
2022-10-25T00:48:18.723Z,960.0500
2022-10-25T00:48:29.789Z,960.0500
2022-10-25T00:48:40.911Z,960.0500
2022-10-25T00:48:52.101Z,960.0700
2022-10-25T00:49:03.158Z,960.0700
2022-10-25T00:49:14.203Z,960.0700
2022-10-25T00:49:25.383Z,960.0900
2022-10-25T00:49:36.582Z,960.0900
2022-10-25T00:49:47.633Z,960.0500
2022-10-25T00:49:58.712Z,960.0700
2022-10-25T00:50:09.864Z,960.0700
2022-10-25T00:50:21.085Z,960.0900
2022-10-25T00:50:32.264Z,960.0900
2022-10-25T00:50:43.463Z,960.0900
2022-10-25T00:50:54.664Z,960.0700
2022-10-25T00:51:05.862Z,960.0700
2022-10-25T00:51:17.063Z,960.0700
2022-10-25T00:51:28.263Z,960.0900
2022-10-25T00:51:39.463Z,960.0900
2022-10-25T00:51:50.503Z,960.0700
2022-10-25T00:52:01.544Z,960.1100
2022-10-25T00:52:12.742Z,960.1100
2022-10-25T00:52:24.007Z,960.1300
2022-10-25T00:52:35.144Z,960.1300
2022-10-25T00:52:46.346Z,960.1500
2022-10-25T00:52:57.383Z,960.1500
2022-10-25T00:53:08.427Z,960.1500
2022-10-25T00:53:19.625Z,960.1500
2022-10-25T00:53:30.829Z,960.1700
2022-10-25T00:53:42.024Z,960.1700
2022-10-25T00:53:53.223Z,960.1900
2022-10-25T00:54:04.262Z,960.1900
2022-10-25T00:54:15.342Z,960.2100
2022-10-25T00:54:26.511Z,960.1900
2022-10-25T00:54:37.703Z,960.1900
2022-10-25T00:54:48.903Z,960.1900
2022-10-25T00:55:00.117Z,960.1900
2022-10-25T00:55:11.143Z,960.1900
2022-10-25T00:55:22.242Z,960.2100
2022-10-25T00:55:33.383Z,960.1900
2022-10-25T00:55:44.583Z,960.2100
2022-10-25T00:55:55.783Z,960.1900
2022-10-25T00:56:06.986Z,960.1700
2022-10-25T00:56:18.030Z,960.1700
2022-10-25T00:56:29.063Z,960.1700
2022-10-25T00:56:40.263Z,960.1500
2022-10-25T00:56:51.464Z,960.1700
2022-10-25T00:57:02.665Z,960.1500
2022-10-25T00:57:13.873Z,960.1500
2022-10-25T00:57:25.064Z,960.1300
2022-10-25T00:57:36.263Z,960.1500
2022-10-25T00:57:47.756Z,960.1300
2022-10-25T00:57:59.035Z,960.1300
2022-10-25T00:58:10.193Z,960.1300
2022-10-25T00:58:21.389Z,960.1300
2022-10-25T00:58:32.502Z,960.1100
2022-10-25T00:58:43.562Z,960.1100
2022-10-25T00:58:54.663Z,960.0900
2022-10-25T00:59:05.870Z,960.1100
2022-10-25T00:59:16.923Z,960.1300
2022-10-25T00:59:27.993Z,960.1300
2022-10-25T00:59:39.042Z,960.1300
2022-10-25T00:59:50.193Z,960.1100
2022-10-25T01:00:01.273Z,960.1100
2022-10-25T01:00:12.423Z,960.1100
2022-10-25T01:00:23.664Z,960.0900
2022-10-25T01:00:34.831Z,960.0900
2022-10-25T01:00:46.037Z,960.0900
2022-10-25T01:00:57.231Z,960.0900
2022-10-25T01:01:08.566Z,960.0700
2022-10-25T01:01:19.734Z,960.0900
2022-10-25T01:01:30.993Z,960.0900
2022-10-25T01:01:42.527Z,960.0700
2022-10-25T01:01:53.641Z,960.0900
2022-10-25T01:02:04.943Z,960.0900
2022-10-25T01:02:16.192Z,960.0700
2022-10-25T01:02:27.638Z,960.0700
2022-10-25T01:02:38.862Z,960.0900
2022-10-25T01:02:50.142Z,960.0900
2022-10-25T01:03:01.410Z,960.0500
2022-10-25T01:03:12.584Z,960.0500
2022-10-25T01:03:23.632Z,960.0300
2022-10-25T01:03:34.707Z,960.0100
2022-10-25T01:03:45.872Z,959.9900
2022-10-25T01:03:57.065Z,959.9900
2022-10-25T01:04:08.262Z,959.9700
2022-10-25T01:04:19.471Z,959.9700
2022-10-25T01:04:30.671Z,959.9600
2022-10-25T01:04:41.864Z,959.9700
2022-10-25T01:04:53.065Z,959.9600
2022-10-25T01:05:04.263Z,959.9600
2022-10-25T01:05:15.475Z,959.9600
2022-10-25T01:05:26.556Z,959.9600
2022-10-25T01:05:37.625Z,959.9400
2022-10-25T01:05:48.742Z,959.9400
2022-10-25T01:05:59.944Z,959.9200
2022-10-25T01:06:11.149Z,959.9200
2022-10-25T01:06:22.346Z,959.9400
2022-10-25T01:06:33.551Z,959.9400
2022-10-25T01:06:44.742Z,959.9600
2022-10-25T01:06:55.961Z,959.9400
2022-10-25T01:07:07.143Z,959.9200
2022-10-25T01:07:18.344Z,959.9200
2022-10-25T01:07:29.458Z,959.9200
2022-10-25T01:07:40.493Z,959.9400
2022-10-25T01:07:51.623Z,959.9400
2022-10-25T01:08:02.823Z,959.9400
2022-10-25T01:08:13.898Z,959.9400
2022-10-25T01:08:24.971Z,959.9400
2022-10-25T01:08:36.023Z,959.9200
2022-10-25T01:08:47.093Z,959.9400
2022-10-25T01:08:58.183Z,959.9400
2022-10-25T01:09:09.224Z,959.9200
2022-10-25T01:09:20.264Z,959.9400
2022-10-25T01:09:31.365Z,959.9400
2022-10-25T01:09:42.403Z,959.9400
2022-10-25T01:09:53.543Z,959.9600
2022-10-25T01:10:04.752Z,959.9600
2022-10-25T01:10:15.802Z,959.9600
2022-10-25T01:10:26.903Z,959.9600
2022-10-25T01:10:38.031Z,959.9700
2022-10-25T01:10:49.074Z,959.9700
2022-10-25T01:11:00.152Z,959.9900
2022-10-25T01:11:11.331Z,959.9900
2022-10-25T01:11:22.504Z,960.0100
2022-10-25T01:11:33.703Z,959.9900
2022-10-25T01:11:44.916Z,959.9900
2022-10-25T01:11:56.106Z,960.0100
2022-10-25T01:12:07.310Z,959.9900
2022-10-25T01:12:18.503Z,959.9900
2022-10-25T01:12:29.704Z,960.0100
2022-10-25T01:12:40.903Z,960.0300
2022-10-25T01:12:52.368Z,960.0300
2022-10-25T01:13:03.673Z,960.0300
2022-10-25T01:13:14.824Z,960.0300
2022-10-25T01:13:26.025Z,960.0700
2022-10-25T01:13:37.231Z,960.0700
2022-10-25T01:13:48.263Z,960.0700
2022-10-25T01:13:59.303Z,960.0500
2022-10-25T01:14:10.502Z,960.0700
2022-10-25T01:14:21.547Z,960.0900
2022-10-25T01:14:32.584Z,960.0900
2022-10-25T01:14:43.789Z,960.0900
2022-10-25T01:14:54.823Z,960.1300
2022-10-25T01:15:05.863Z,960.1300
2022-10-25T01:15:17.071Z,960.1300
2022-10-25T01:15:28.293Z,960.1100
2022-10-25T01:15:39.347Z,960.1300
2022-10-25T01:15:50.418Z,960.1300
2022-10-25T01:16:01.464Z,960.1300
2022-10-25T01:16:12.533Z,960.1500
2022-10-25T01:16:23.632Z,960.1500
2022-10-25T01:16:34.823Z,960.1500
2022-10-25T01:16:46.020Z,960.1700
2022-10-25T01:16:57.223Z,960.1500
2022-10-25T01:17:08.464Z,960.1700
2022-10-25T01:17:19.633Z,960.1900
2022-10-25T01:17:30.676Z,960.1900
2022-10-25T01:17:41.723Z,960.1900
2022-10-25T01:17:52.903Z,960.1900
2022-10-25T01:18:04.115Z,960.2100
2022-10-25T01:18:15.203Z,960.2100
2022-10-25T01:18:26.264Z,960.1900
2022-10-25T01:18:37.385Z,960.1900
2022-10-25T01:18:48.586Z,960.2100
2022-10-25T01:18:59.783Z,960.1900
2022-10-25T01:19:10.983Z,960.1900
2022-10-25T01:19:22.224Z,960.1900
2022-10-25T01:19:44.582Z,960.1900
2022-10-25T01:19:55.783Z,960.1900
2022-10-25T01:20:06.834Z,960.1700
2022-10-25T01:20:17.881Z,960.1700
2022-10-25T01:20:29.123Z,960.1700
2022-10-25T01:20:40.264Z,960.1700
2022-10-25T01:20:51.514Z,960.1700
2022-10-25T01:21:02.664Z,960.1700
2022-10-25T01:21:13.866Z,960.1700
2022-10-25T01:21:25.063Z,960.1700
2022-10-25T01:21:36.271Z,960.1700
2022-10-25T01:21:47.463Z,960.1700
2022-10-25T01:21:58.667Z,960.1900
2022-10-25T01:22:09.914Z,960.1900
2022-10-25T01:22:21.062Z,960.1900
2022-10-25T01:22:32.106Z,960.1900
2022-10-25T01:22:43.386Z,960.1900
2022-10-25T01:22:54.732Z,960.1900
2022-10-25T01:23:05.863Z,960.2100
2022-10-25T01:23:17.063Z,960.1900
2022-10-25T01:23:28.262Z,960.2100
2022-10-25T01:23:39.313Z,960.1900
2022-10-25T01:23:50.354Z,960.2100
2022-10-25T01:24:01.545Z,960.2300
2022-10-25T01:24:12.743Z,960.2300
2022-10-25T01:24:23.785Z,960.2100
2022-10-25T01:24:34.821Z,960.2100
2022-10-25T01:24:46.033Z,960.2100
2022-10-25T01:24:57.225Z,960.1900
2022-10-25T01:25:08.428Z,960.1700
2022-10-25T01:25:19.628Z,960.1700
2022-10-25T01:25:30.843Z,960.1500
2022-10-25T01:25:42.024Z,960.1500
2022-10-25T01:25:53.225Z,960.1300
2022-10-25T01:26:04.424Z,960.1300
2022-10-25T01:26:15.622Z,960.1100
2022-10-25T01:26:26.663Z,960.1100
2022-10-25T01:26:37.703Z,960.0700
2022-10-25T01:26:48.904Z,960.0500
2022-10-25T01:27:00.104Z,960.0100
2022-10-25T01:27:11.303Z,960.0100
2022-10-25T01:27:22.343Z,960.0100
2022-10-25T01:27:33.393Z,959.9900
2022-10-25T01:27:44.645Z,959.9600
2022-10-25T01:28:07.994Z,959.9600
2022-10-25T01:28:19.151Z,959.9600
2022-10-25T01:28:30.344Z,959.9400
2022-10-25T01:28:41.413Z,959.9200
2022-10-25T01:28:52.474Z,959.9200
2022-10-25T01:29:03.624Z,959.9000
2022-10-25T01:29:14.835Z,959.9000
2022-10-25T01:29:25.895Z,959.9200
2022-10-25T01:29:36.943Z,959.9000
2022-10-25T01:29:48.110Z,959.8800
2022-10-25T01:29:59.304Z,959.9000
2022-10-25T01:30:10.503Z,959.8600
2022-10-25T01:30:21.714Z,959.8400
2022-10-25T01:30:32.844Z,959.8600
2022-10-25T01:30:43.903Z,959.8400
2022-10-25T01:30:54.993Z,959.8400
2022-10-25T01:31:06.183Z,959.8200
2022-10-25T01:31:17.383Z,959.8200
2022-10-25T01:31:28.588Z,959.8000
2022-10-25T01:31:39.654Z,959.8200
2022-10-25T01:31:50.726Z,959.8200
2022-10-25T01:32:01.865Z,959.8000
2022-10-25T01:32:13.063Z,959.7800
2022-10-25T01:32:24.263Z,959.7800
2022-10-25T01:32:35.463Z,959.7800
2022-10-25T01:32:46.787Z,959.7800
2022-10-25T01:32:58.223Z,959.7800
2022-10-25T01:33:09.383Z,959.7800
2022-10-25T01:33:20.585Z,959.8000
2022-10-25T01:33:31.783Z,959.8000
2022-10-25T01:33:42.983Z,959.7800
2022-10-25T01:33:54.192Z,959.8000
2022-10-25T01:34:05.384Z,959.8000
2022-10-25T01:34:16.586Z,959.8000
2022-10-25T01:34:27.784Z,959.8000
2022-10-25T01:34:38.984Z,959.7800
2022-10-25T01:34:50.043Z,959.8000
2022-10-25T01:35:01.114Z,959.7800
2022-10-25T01:35:12.263Z,959.7800
2022-10-25T01:35:23.357Z,959.7600
2022-10-25T01:35:34.412Z,959.7600
2022-10-25T01:35:45.463Z,959.7600
2022-10-25T01:35:56.543Z,959.7600
2022-10-25T01:36:07.670Z,959.7400
2022-10-25T01:36:18.699Z,959.7400
2022-10-25T01:36:29.723Z,959.7200
2022-10-25T01:36:40.908Z,959.7000
2022-10-25T01:36:51.954Z,959.7200
2022-10-25T01:37:03.047Z,959.6800
2022-10-25T01:37:14.184Z,959.6800
2022-10-25T01:37:25.386Z,959.6600
2022-10-25T01:37:36.584Z,959.6400
2022-10-25T01:37:48.267Z,959.6400
2022-10-25T01:37:59.623Z,959.6400
2022-10-25T01:38:10.826Z,959.6200
2022-10-25T01:38:21.868Z,959.6400
2022-10-25T01:38:32.903Z,959.6200
2022-10-25T01:38:44.111Z,959.6200
2022-10-25T01:38:55.156Z,959.6400
2022-10-25T01:39:06.196Z,959.6400
2022-10-25T01:39:17.383Z,959.6400
2022-10-25T01:39:28.583Z,959.6400
2022-10-25T01:39:39.626Z,959.6600
2022-10-25T01:39:50.673Z,959.6800
2022-10-25T01:40:01.741Z,959.7000
2022-10-25T01:40:12.810Z,959.7000
2022-10-25T01:40:23.944Z,959.7400
2022-10-25T01:40:35.181Z,959.7400
2022-10-25T01:40:46.228Z,959.7600
2022-10-25T01:40:57.293Z,959.7600
2022-10-25T01:41:08.343Z,959.7600
2022-10-25T01:41:19.403Z,959.7600
2022-10-25T01:41:30.511Z,959.7600
2022-10-25T01:41:41.573Z,959.7600
2022-10-25T01:41:52.643Z,959.7600
2022-10-25T01:42:03.783Z,959.7600
2022-10-25T01:42:14.823Z,959.7600
2022-10-25T01:42:25.873Z,959.7800
2022-10-25T01:42:37.073Z,959.7800
2022-10-25T01:42:48.266Z,959.7800
2022-10-25T01:42:59.464Z,959.7800
2022-10-25T01:43:10.673Z,959.7600
2022-10-25T01:43:21.746Z,959.7800
2022-10-25T01:43:32.819Z,959.7800
2022-10-25T01:43:43.943Z,959.7600
2022-10-25T01:43:55.143Z,959.7600
2022-10-25T01:44:06.345Z,959.7800
2022-10-25T01:44:17.544Z,959.7800
2022-10-25T01:44:28.805Z,959.7600
2022-10-25T01:44:39.879Z,959.7800
2022-10-25T01:44:50.930Z,959.7600
2022-10-25T01:45:02.026Z,959.7800
2022-10-25T01:45:13.235Z,959.7800
2022-10-25T01:45:24.425Z,959.8000
2022-10-25T01:45:35.658Z,959.8000
2022-10-25T01:45:46.825Z,959.8000
2022-10-25T01:45:58.027Z,959.8000
2022-10-25T01:46:09.223Z,959.8000
2022-10-25T01:46:20.423Z,959.8000
2022-10-25T01:46:31.629Z,959.7800
2022-10-25T01:46:42.822Z,959.7600
2022-10-25T01:46:54.027Z,959.7600
2022-10-25T01:47:05.223Z,959.7600
2022-10-25T01:47:16.423Z,959.7600
2022-10-25T01:47:27.491Z,959.7600
2022-10-25T01:47:38.541Z,959.7600
2022-10-25T01:47:49.849Z,959.7400
2022-10-25T01:48:01.273Z,959.7200
2022-10-25T01:48:12.423Z,959.7400
2022-10-25T01:48:23.623Z,959.7400
2022-10-25T01:48:34.823Z,959.7200
2022-10-25T01:48:46.023Z,959.7400
2022-10-25T01:48:57.223Z,959.7200
2022-10-25T01:49:08.431Z,959.7200
2022-10-25T01:49:19.623Z,959.7400
2022-10-25T01:49:30.824Z,959.7200
2022-10-25T01:49:42.026Z,959.7200
2022-10-25T01:49:53.223Z,959.7400
2022-10-25T01:50:04.424Z,959.7200
2022-10-25T01:50:15.641Z,959.7200
2022-10-25T01:50:26.693Z,959.7200
2022-10-25T01:50:37.790Z,959.7200
2022-10-25T01:50:48.904Z,959.7200
2022-10-25T01:51:00.110Z,959.7200
2022-10-25T01:51:11.160Z,959.7200
2022-10-25T01:51:22.224Z,959.7200
2022-10-25T01:51:33.263Z,959.7200
2022-10-25T01:51:44.323Z,959.7200
2022-10-25T01:51:55.464Z,959.7400
2022-10-25T01:52:06.513Z,959.7200
2022-10-25T01:52:17.592Z,959.7400
2022-10-25T01:52:28.634Z,959.7400
2022-10-25T01:52:39.673Z,959.7400
2022-10-25T01:52:50.874Z,959.7200
2022-10-25T01:53:02.025Z,959.7400
2022-10-25T01:53:13.064Z,959.7400
2022-10-25T01:53:24.105Z,959.7400
2022-10-25T01:53:35.303Z,959.7400
2022-10-25T01:53:46.349Z,959.7400
2022-10-25T01:53:57.393Z,959.7200
2022-10-25T01:54:08.594Z,959.7400
2022-10-25T01:54:19.782Z,959.7400
2022-10-25T01:54:30.843Z,959.7600
2022-10-25T01:54:41.883Z,959.7400
2022-10-25T01:54:52.943Z,959.7400
2022-10-25T01:55:04.004Z,959.7400
2022-10-25T01:55:15.143Z,959.7400
2022-10-25T01:55:26.344Z,959.7600
2022-10-25T01:55:37.542Z,959.7600
2022-10-25T01:55:48.783Z,959.7400
2022-10-25T01:55:59.942Z,959.7600
2022-10-25T01:56:11.144Z,959.7600
2022-10-25T01:56:22.193Z,959.7600
2022-10-25T01:56:33.233Z,959.7600
2022-10-25T01:56:44.423Z,959.7800
2022-10-25T01:56:55.641Z,959.7600
2022-10-25T01:57:06.823Z,959.7800
2022-10-25T01:57:18.024Z,959.7600
2022-10-25T01:57:29.221Z,959.7600
2022-10-25T01:57:40.423Z,959.7600
2022-10-25T01:57:51.624Z,959.7800
2022-10-25T01:58:02.673Z,959.7800
2022-10-25T01:58:13.743Z,959.7600
2022-10-25T01:58:24.903Z,959.7800
2022-10-25T01:58:35.953Z,959.7800
2022-10-25T01:58:47.032Z,959.7600
2022-10-25T01:58:58.183Z,959.7600
2022-10-25T01:59:09.233Z,959.7600
2022-10-25T01:59:20.273Z,959.7600
2022-10-25T01:59:31.464Z,959.7600
2022-10-25T01:59:42.663Z,959.7800
2022-10-25T01:59:53.863Z,959.8000
2022-10-25T02:00:05.068Z,959.7800
2022-10-25T02:00:16.262Z,959.7800
2022-10-25T02:00:27.510Z,959.7600
2022-10-25T02:00:38.732Z,959.7600
2022-10-25T02:00:49.944Z,959.7600
2022-10-25T02:01:01.255Z,959.7600
2022-10-25T02:01:12.904Z,959.7800
2022-10-25T02:01:24.479Z,959.7600
2022-10-25T02:01:35.846Z,959.7600
2022-10-25T02:01:47.200Z,959.7800
2022-10-25T02:01:58.263Z,959.8000
2022-10-25T02:02:09.334Z,959.8000
2022-10-25T02:02:20.422Z,959.8000
2022-10-25T02:02:31.624Z,959.8000
2022-10-25T02:02:43.030Z,959.7800
2022-10-25T02:02:54.380Z,959.8000
2022-10-25T02:03:05.544Z,959.8000
2022-10-25T02:03:16.744Z,959.7800
2022-10-25T02:03:27.943Z,959.8000
2022-10-25T02:03:39.146Z,959.8000
2022-10-25T02:03:50.343Z,959.8200
2022-10-25T02:04:01.382Z,959.8000
2022-10-25T02:04:12.423Z,959.8000
2022-10-25T02:04:23.623Z,959.8000
2022-10-25T02:04:34.683Z,959.8000
2022-10-25T02:04:45.745Z,959.8200
2022-10-25T02:04:56.905Z,959.8200
2022-10-25T02:05:07.943Z,959.8200
2022-10-25T02:05:18.984Z,959.8200
2022-10-25T02:05:30.183Z,959.8200
2022-10-25T02:05:41.383Z,959.8000
2022-10-25T02:05:52.613Z,959.8200
2022-10-25T02:06:03.783Z,959.8200
2022-10-25T02:06:14.983Z,959.8000
2022-10-25T02:06:26.183Z,959.8200
2022-10-25T02:06:37.390Z,959.8200
2022-10-25T02:06:48.583Z,959.8000
2022-10-25T02:06:59.783Z,959.8200
2022-10-25T02:07:10.831Z,959.8200
2022-10-25T02:07:21.874Z,959.8000
2022-10-25T02:07:33.062Z,959.8000
2022-10-25T02:07:44.268Z,959.8200
2022-10-25T02:07:55.489Z,959.8000
2022-10-25T02:08:06.675Z,959.8000
2022-10-25T02:08:17.865Z,959.8000
2022-10-25T02:08:29.062Z,959.8000
2022-10-25T02:08:40.263Z,959.8000
2022-10-25T02:08:51.464Z,959.8000
2022-10-25T02:09:02.663Z,959.8000
2022-10-25T02:09:13.720Z,959.8000
2022-10-25T02:09:24.782Z,959.8000
2022-10-25T02:09:35.963Z,959.8000
2022-10-25T02:09:47.024Z,959.8000
2022-10-25T02:09:58.123Z,959.8000
2022-10-25T02:10:09.227Z,959.8000
2022-10-25T02:10:20.280Z,959.8000
2022-10-25T02:10:31.313Z,959.8000
2022-10-25T02:10:42.503Z,959.8000
2022-10-25T02:10:53.601Z,959.8000
2022-10-25T02:11:04.662Z,959.8000
2022-10-25T02:11:15.783Z,959.8000
2022-10-25T02:11:26.838Z,959.7600
2022-10-25T02:11:37.905Z,959.7800